createdAt,value
2019-04-26T00:00:23.546Z,14.60
2019-04-26T00:02:57.698Z,14.50
2019-04-26T00:05:34.481Z,14.60
2019-04-26T00:07:58.797Z,14.60
2019-04-26T00:10:30.254Z,14.60
2019-04-26T00:13:21.550Z,14.60
2019-04-26T00:15:53.943Z,14.60
2019-04-26T00:18:23.743Z,14.70
2019-04-26T00:20:53.517Z,14.70
2019-04-26T00:23:23.406Z,14.70
2019-04-26T00:25:53.347Z,14.70
2019-04-26T00:28:23.070Z,14.70
2019-04-26T00:30:52.747Z,14.70
2019-04-26T00:33:22.406Z,14.70
2019-04-26T00:35:52.086Z,14.70
2019-04-26T00:38:22.407Z,14.70
2019-04-26T00:40:52.810Z,14.60
2019-04-26T00:43:23.135Z,14.60
2019-04-26T00:45:53.430Z,14.60
2019-04-26T00:48:25.962Z,14.60
2019-04-26T00:50:56.523Z,14.60
2019-04-26T00:53:29.193Z,14.60
2019-04-26T00:56:00.011Z,14.50
2019-04-26T00:58:33.425Z,14.50
2019-04-26T01:01:02.804Z,14.50
2019-04-26T01:03:32.486Z,14.50
2019-04-26T01:06:03.839Z,14.50
2019-04-26T01:08:33.650Z,14.50
2019-04-26T01:11:03.293Z,14.50
2019-04-26T01:13:32.863Z,14.50
2019-04-26T01:16:02.678Z,14.60
2019-04-26T01:18:32.704Z,14.70
2019-04-26T01:21:05.887Z,14.70
2019-04-26T01:23:38.454Z,14.70
2019-04-26T01:26:17.948Z,14.70
2019-04-26T01:28:57.140Z,14.70
2019-04-26T01:31:29.098Z,14.80
2019-04-26T01:33:58.916Z,14.80
2019-04-26T01:36:30.905Z,14.80
2019-04-26T01:39:08.283Z,14.80
2019-04-26T01:41:52.038Z,14.70
2019-04-26T01:44:26.577Z,14.70
2019-04-26T01:46:57.576Z,14.70
2019-04-26T01:49:28.288Z,14.60
2019-04-26T01:52:03.898Z,14.70
2019-04-26T01:54:42.194Z,14.80
2019-04-26T01:57:13.006Z,14.70
2019-04-26T01:59:46.910Z,14.70
2019-04-26T02:02:23.844Z,14.70
2019-04-26T02:04:56.368Z,14.80
2019-04-26T02:07:41.538Z,14.80
2019-04-26T02:10:24.023Z,14.70
2019-04-26T02:12:55.408Z,14.80
2019-04-26T02:15:27.831Z,14.80
2019-04-26T02:17:59.181Z,14.80
2019-04-26T02:21:00.297Z,14.80
2019-04-26T02:23:47.614Z,14.90
2019-04-26T02:26:34.862Z,15.10
2019-04-26T02:29:13.669Z,15.20
2019-04-26T02:31:45.706Z,15.20
2019-04-26T02:34:15.806Z,15.40
2019-04-26T02:36:57.210Z,15.40
2019-04-26T02:39:22.718Z,15.30
2019-04-26T02:41:55.307Z,15.30
2019-04-26T02:44:30.888Z,15.30
2019-04-26T02:47:23.904Z,15.50
2019-04-26T02:49:57.143Z,15.60
2019-04-26T02:52:52.512Z,15.60
2019-04-26T02:55:38.906Z,15.60
2019-04-26T02:58:05.992Z,15.60
2019-04-26T03:00:37.278Z,15.90
2019-04-26T03:03:08.476Z,16.00
2019-04-26T03:05:40.852Z,16.00
2019-04-26T03:08:13.499Z,16.20
2019-04-26T03:10:46.076Z,16.20
2019-04-26T03:13:19.358Z,16.20
2019-04-26T03:16:02.187Z,16.20
2019-04-26T03:18:37.347Z,16.10
2019-04-26T03:21:28.812Z,16.10
2019-04-26T03:24:13.197Z,16.30
2019-04-26T03:27:11.841Z,16.40
2019-04-26T03:30:17.369Z,16.30
2019-04-26T03:32:44.077Z,16.40
2019-04-26T03:35:27.458Z,16.50
2019-04-26T03:38:07.626Z,16.60
2019-04-26T03:40:50.698Z,16.70
2019-04-26T03:43:34.361Z,16.60
2019-04-26T03:46:12.129Z,16.60
2019-04-26T03:49:04.634Z,16.70
2019-04-26T03:51:53.537Z,16.80
2019-04-26T03:54:32.460Z,16.80
2019-04-26T03:57:32.478Z,16.70
2019-04-26T04:00:15.709Z,16.50
2019-04-26T04:02:50.029Z,16.30
2019-04-26T04:05:37.900Z,16.20
2019-04-26T04:08:13.615Z,16.00
2019-04-26T04:10:47.733Z,15.90
2019-04-26T04:13:44.399Z,15.80
2019-04-26T04:16:46.705Z,15.60
2019-04-26T04:19:55.982Z,15.60
2019-04-26T04:22:28.564Z,15.50
2019-04-26T04:25:04.277Z,15.50
2019-04-26T04:27:47.276Z,15.40
2019-04-26T04:30:29.032Z,15.20
2019-04-26T04:33:10.962Z,15.10
2019-04-26T04:35:52.889Z,15.00
2019-04-26T04:38:28.975Z,15.00
2019-04-26T04:41:27.185Z,15.00
2019-04-26T04:44:19.442Z,15.00
2019-04-26T04:47:23.579Z,15.00
2019-04-26T04:50:02.643Z,15.00
2019-04-26T04:52:53.585Z,15.20
2019-04-26T04:55:26.231Z,15.50
2019-04-26T04:58:05.260Z,15.60
2019-04-26T05:01:03.435Z,15.60
2019-04-26T05:03:51.037Z,15.60
2019-04-26T05:06:42.823Z,15.70
2019-04-26T05:09:19.258Z,15.60
2019-04-26T05:11:52.042Z,15.60
2019-04-26T05:14:41.810Z,15.60
2019-04-26T05:17:26.586Z,15.70
2019-04-26T05:20:08.119Z,15.70
2019-04-26T05:22:51.106Z,15.80
2019-04-26T05:26:00.334Z,15.80
2019-04-26T05:29:05.890Z,15.70
2019-04-26T05:31:41.501Z,15.80
2019-04-26T05:34:27.733Z,16.00
2019-04-26T05:37:15.443Z,16.30
2019-04-26T05:40:04.766Z,16.60
2019-04-26T05:42:58.004Z,16.70
2019-04-26T05:46:00.835Z,16.80
2019-04-26T05:48:55.651Z,16.90
2019-04-26T05:51:47.656Z,16.90
2019-04-26T05:55:00.269Z,17.00
2019-04-26T05:57:46.426Z,17.10
2019-04-26T06:00:35.646Z,17.10
2019-04-26T06:03:31.210Z,17.40
2019-04-26T06:06:20.303Z,17.60
2019-04-26T06:09:12.353Z,17.80
2019-04-26T06:12:01.915Z,17.80
2019-04-26T06:14:51.884Z,18.00
2019-04-26T06:17:45.111Z,18.10
2019-04-26T06:20:30.097Z,18.30
2019-04-26T06:23:37.599Z,18.50
2019-04-26T06:26:20.798Z,18.70
2019-04-26T06:29:05.703Z,19.00
2019-04-26T06:31:47.483Z,20.20
2019-04-26T06:34:36.987Z,21.90
2019-04-26T06:37:16.701Z,21.50
2019-04-26T06:40:07.715Z,21.00
2019-04-26T06:43:07.321Z,21.30
2019-04-26T06:45:44.442Z,20.50
2019-04-26T06:48:36.222Z,21.10
2019-04-26T06:51:31.783Z,21.00
2019-04-26T06:54:08.854Z,21.10
2019-04-26T06:56:51.970Z,21.70
2019-04-26T06:59:43.001Z,23.90
2019-04-26T07:02:43.019Z,25.10
2019-04-26T07:05:21.643Z,26.10
2019-04-26T07:08:00.434Z,25.80
2019-04-26T07:10:55.341Z,27.10
2019-04-26T07:13:41.503Z,28.50
2019-04-26T07:16:22.817Z,29.80
2019-04-26T07:19:08.222Z,27.40
2019-04-26T07:22:10.899Z,24.90
2019-04-26T07:25:03.574Z,23.20
2019-04-26T07:27:49.345Z,21.90
2019-04-26T07:30:22.053Z,20.70
2019-04-26T07:32:54.877Z,20.30
2019-04-26T07:35:27.659Z,20.00
2019-04-26T07:38:26.173Z,19.80
2019-04-26T07:41:09.385Z,19.80
2019-04-26T07:44:15.025Z,19.90
2019-04-26T07:46:53.538Z,20.00
2019-04-26T07:49:59.711Z,20.00
2019-04-26T07:52:35.350Z,20.20
2019-04-26T07:55:29.183Z,20.70
2019-04-26T07:58:36.983Z,21.90
2019-04-26T08:01:29.230Z,21.30
2019-04-26T08:04:12.365Z,21.40
2019-04-26T08:06:46.654Z,22.20
2019-04-26T08:09:26.894Z,24.10
2019-04-26T08:11:53.856Z,27.10
2019-04-26T08:14:29.371Z,26.10
2019-04-26T08:17:27.342Z,24.70
2019-04-26T08:20:11.459Z,23.30
2019-04-26T08:22:45.322Z,23.20
2019-04-26T08:25:17.670Z,25.20
2019-04-26T08:27:49.323Z,25.20
2019-04-26T08:30:22.692Z,24.30
2019-04-26T08:32:57.674Z,23.40
2019-04-26T08:35:30.419Z,23.90
2019-04-26T08:38:07.930Z,23.20
2019-04-26T08:40:36.494Z,22.80
2019-04-26T08:43:11.028Z,22.40
2019-04-26T08:46:01.965Z,21.80
2019-04-26T08:48:22.416Z,21.30
2019-04-26T08:50:59.318Z,20.90
2019-04-26T08:53:31.786Z,20.80
2019-04-26T08:56:04.466Z,21.10
2019-04-26T08:58:37.154Z,20.90
2019-04-26T09:01:23.462Z,20.90
2019-04-26T09:04:03.499Z,20.60
2019-04-26T09:06:37.818Z,20.40
2019-04-26T09:09:14.315Z,20.70
2019-04-26T09:11:45.056Z,20.60
2019-04-26T09:14:14.966Z,20.70
2019-04-26T09:16:50.364Z,20.50
2019-04-26T09:19:16.014Z,20.40
2019-04-26T09:21:51.329Z,20.40
2019-04-26T09:24:21.028Z,20.40
2019-04-26T09:26:55.798Z,20.20
2019-04-26T09:29:39.222Z,20.60
2019-04-26T09:32:10.507Z,21.20
2019-04-26T09:34:41.724Z,20.90
2019-04-26T09:37:12.842Z,20.30
2019-04-26T09:39:43.479Z,20.40
2019-04-26T09:42:20.762Z,20.10
2019-04-26T09:45:08.321Z,20.10
2019-04-26T09:47:48.453Z,20.00
2019-04-26T09:50:35.056Z,20.50
2019-04-26T09:53:04.707Z,21.00
2019-04-26T09:55:35.618Z,20.90
2019-04-26T09:58:08.622Z,20.80
2019-04-26T10:00:38.509Z,20.60
2019-04-26T10:03:09.370Z,20.30
2019-04-26T10:05:39.664Z,20.00
2019-04-26T10:08:13.096Z,19.70
2019-04-26T10:10:41.041Z,19.50
2019-04-26T10:13:14.921Z,19.50
2019-04-26T10:15:53.796Z,19.60
2019-04-26T10:18:24.363Z,19.70
2019-04-26T10:20:54.922Z,19.50
2019-04-26T10:23:25.762Z,19.30
2019-04-26T10:25:55.675Z,19.20
2019-04-26T10:28:25.388Z,19.10
2019-04-26T10:30:55.111Z,19.10
2019-04-26T10:33:24.911Z,19.20
2019-04-26T10:35:56.802Z,19.10
2019-04-26T10:38:25.978Z,18.90
2019-04-26T10:40:55.633Z,18.60
2019-04-26T10:43:25.296Z,18.60
2019-04-26T10:45:55.103Z,18.20
2019-04-26T10:48:24.814Z,17.90
2019-04-26T10:50:54.522Z,17.70
2019-04-26T10:53:37.938Z,17.70
2019-04-26T10:56:11.963Z,17.90
2019-04-26T10:58:43.318Z,18.10
2019-04-26T11:01:15.378Z,18.10
2019-04-26T11:03:45.413Z,18.20
2019-04-26T11:06:15.058Z,18.50
2019-04-26T11:08:44.714Z,18.50
2019-04-26T11:11:14.452Z,18.60
2019-04-26T11:13:44.141Z,18.80
2019-04-26T11:16:13.880Z,18.90
2019-04-26T11:18:43.759Z,19.10
2019-04-26T11:21:16.516Z,19.40
2019-04-26T11:23:47.017Z,19.50
2019-04-26T11:26:16.882Z,19.50
2019-04-26T11:28:46.625Z,19.80
2019-04-26T11:31:16.406Z,19.80
2019-04-26T11:33:49.523Z,19.60
2019-04-26T11:36:17.694Z,19.30
2019-04-26T11:38:47.334Z,19.30
2019-04-26T11:41:17.079Z,19.50
2019-04-26T11:43:49.088Z,20.10
2019-04-26T11:46:21.362Z,20.90
2019-04-26T11:48:58.546Z,21.70
2019-04-26T11:51:23.490Z,22.20
2019-04-26T11:53:51.598Z,22.70
2019-04-26T11:56:21.102Z,22.80
2019-04-26T11:58:52.479Z,22.70
2019-04-26T12:01:23.713Z,22.90
2019-04-26T12:04:11.503Z,22.40
2019-04-26T12:06:54.671Z,22.20
2019-04-26T12:09:32.989Z,22.00
2019-04-26T12:12:04.744Z,21.50
2019-04-26T12:14:34.374Z,21.00
2019-04-26T12:17:05.133Z,20.80
2019-04-26T12:19:34.757Z,20.90
2019-04-26T12:22:08.155Z,21.10
2019-04-26T12:24:35.821Z,21.20
2019-04-26T12:27:05.845Z,21.70
2019-04-26T12:29:35.481Z,22.50
2019-04-26T12:32:05.265Z,22.60
2019-04-26T12:34:34.901Z,22.90
2019-04-26T12:37:04.689Z,23.50
2019-04-26T12:39:36.644Z,23.00
2019-04-26T12:42:08.309Z,22.70
2019-04-26T12:44:44.871Z,23.20
2019-04-26T12:47:16.007Z,23.70
2019-04-26T12:49:45.861Z,23.30
2019-04-26T12:52:17.593Z,22.80
2019-04-26T12:54:46.990Z,22.70
2019-04-26T12:57:16.711Z,23.10
2019-04-26T12:59:46.278Z,23.60
2019-04-26T13:02:16.595Z,23.80
2019-04-26T13:04:47.274Z,24.20
2019-04-26T13:07:23.794Z,24.20
2019-04-26T13:10:08.345Z,23.80
2019-04-26T13:12:45.373Z,23.90
2019-04-26T13:16:01.086Z,24.10
2019-04-26T13:18:31.691Z,24.30
2019-04-26T13:21:04.495Z,24.30
2019-04-26T13:23:34.412Z,23.70
2019-04-26T13:26:05.459Z,23.80
2019-04-26T13:28:36.279Z,23.80
2019-04-26T13:31:06.015Z,23.80
2019-04-26T13:33:35.636Z,23.60
2019-04-26T13:36:05.503Z,24.30
2019-04-26T13:38:39.433Z,24.40
2019-04-26T13:41:10.841Z,23.90
2019-04-26T13:43:40.685Z,24.00
2019-04-26T13:46:26.775Z,23.60
2019-04-26T13:52:21.573Z,23.60
2019-04-26T13:54:55.309Z,24.10
2019-04-26T13:57:31.663Z,24.40
2019-04-26T14:00:07.648Z,24.30
2019-04-26T14:02:36.589Z,24.40
2019-04-26T14:05:06.834Z,24.20
2019-04-26T14:07:36.647Z,23.60
2019-04-26T14:10:08.334Z,23.30
2019-04-26T14:12:38.050Z,22.90
2019-04-26T14:15:08.494Z,23.10
2019-04-26T14:17:40.334Z,23.40
2019-04-26T14:20:10.209Z,23.40
2019-04-26T14:22:42.431Z,23.30
2019-04-26T14:25:15.448Z,22.90
2019-04-26T14:27:50.054Z,22.80
2019-04-26T14:30:20.221Z,23.00
2019-04-26T14:32:53.237Z,23.00
2019-04-26T14:35:21.278Z,22.90
2019-04-26T14:37:51.602Z,23.00
2019-04-26T14:40:22.401Z,23.30
2019-04-26T14:43:05.610Z,23.30
2019-04-26T14:45:24.225Z,23.70
2019-04-26T14:47:55.818Z,24.00
2019-04-26T14:50:28.244Z,23.70
2019-04-26T14:53:02.216Z,23.30
2019-04-26T14:55:29.610Z,23.00
2019-04-26T14:57:59.322Z,23.40
2019-04-26T15:00:33.942Z,23.70
2019-04-26T15:03:04.463Z,23.60
2019-04-26T15:05:43.160Z,23.40
2019-04-26T15:08:13.318Z,23.20
2019-04-26T15:10:46.781Z,23.00
2019-04-26T15:13:20.217Z,22.70
2019-04-26T15:15:46.240Z,22.50
2019-04-26T15:18:16.057Z,22.30
2019-04-26T15:20:45.859Z,22.40
2019-04-26T15:23:15.561Z,22.60
2019-04-26T15:25:48.410Z,22.50
2019-04-26T15:28:16.425Z,22.60
2019-04-26T15:30:47.001Z,22.60
2019-04-26T15:33:16.806Z,22.60
2019-04-26T15:35:52.016Z,22.40
2019-04-26T15:38:20.448Z,22.00
2019-04-26T15:41:05.537Z,21.50
2019-04-26T15:43:33.839Z,21.20
2019-04-26T15:46:14.129Z,21.00
2019-04-26T15:49:04.726Z,20.50
2019-04-26T15:51:37.850Z,19.80
2019-04-26T15:54:07.490Z,19.10
2019-04-26T15:56:37.214Z,18.90
2019-04-26T15:59:06.853Z,18.70
2019-04-26T16:01:36.543Z,18.20
2019-04-26T16:04:13.343Z,17.60
2019-04-26T16:06:45.072Z,17.50
2019-04-26T16:09:19.847Z,17.60
2019-04-26T16:11:49.599Z,17.90
2019-04-26T16:14:17.110Z,18.40
2019-04-26T16:16:46.774Z,18.70
2019-04-26T16:19:27.864Z,19.00
2019-04-26T16:21:57.587Z,19.10
2019-04-26T16:24:27.899Z,19.30
2019-04-26T16:26:58.622Z,19.50
2019-04-26T16:29:42.459Z,19.20
2019-04-26T16:32:23.667Z,19.20
2019-04-26T16:34:59.521Z,19.50
2019-04-26T16:37:40.770Z,19.20
2019-04-26T16:40:18.062Z,19.20
2019-04-26T16:42:56.647Z,19.20
2019-04-26T16:45:22.741Z,18.60
2019-04-26T16:47:53.123Z,18.40
2019-04-26T16:50:31.207Z,18.30
2019-04-26T16:52:56.883Z,18.40
2019-04-26T16:55:26.410Z,18.30
2019-04-26T16:57:58.273Z,18.20
2019-04-26T17:00:47.173Z,17.80
2019-04-26T17:03:03.963Z,17.60
2019-04-26T17:05:45.508Z,17.60
2019-04-26T17:08:05.147Z,17.60
2019-04-26T17:10:34.038Z,17.60
2019-04-26T17:13:05.245Z,17.50
2019-04-26T17:15:36.541Z,17.50
2019-04-26T17:18:06.165Z,17.50
2019-04-26T17:20:35.871Z,17.40
2019-04-26T17:23:09.779Z,17.30
2019-04-26T17:25:43.566Z,17.30
2019-04-26T17:28:18.014Z,17.20
2019-04-26T17:30:44.696Z,17.20
2019-04-26T17:33:14.442Z,17.20
2019-04-26T17:35:44.069Z,17.10
2019-04-26T17:38:14.095Z,17.10
2019-04-26T17:40:46.217Z,17.00
2019-04-26T17:43:17.606Z,17.00
2019-04-26T17:45:48.164Z,17.00
2019-04-26T17:48:17.807Z,16.80
2019-04-26T17:50:47.512Z,16.50
2019-04-26T17:53:28.615Z,16.20
2019-04-26T17:55:52.998Z,15.90
2019-04-26T17:58:27.811Z,15.70
2019-04-26T18:00:51.556Z,15.50
2019-04-26T18:03:21.618Z,15.20
2019-04-26T18:05:57.011Z,15.10
2019-04-26T18:08:36.175Z,14.90
2019-04-26T18:10:55.392Z,14.80
2019-04-26T18:13:25.094Z,14.70
2019-04-26T18:15:55.768Z,14.60
2019-04-26T18:18:43.009Z,14.50
2019-04-26T18:21:30.554Z,14.40
2019-04-26T18:24:00.362Z,14.20
2019-04-26T18:26:29.934Z,14.10
2019-04-26T18:28:59.569Z,14.00
2019-04-26T18:31:30.182Z,13.90
2019-04-26T18:34:01.021Z,13.80
2019-04-26T18:36:32.142Z,13.70
2019-04-26T18:39:03.923Z,13.60
2019-04-26T18:41:35.278Z,13.50
2019-04-26T18:44:05.884Z,13.30
2019-04-26T18:46:40.511Z,13.20
2019-04-26T18:49:11.326Z,13.20
2019-04-26T18:51:43.316Z,13.10
2019-04-26T18:54:17.879Z,13.10
2019-04-26T18:56:48.230Z,13.10
2019-04-26T18:59:17.774Z,13.00
2019-04-26T19:01:47.513Z,12.90
2019-04-26T19:04:17.140Z,12.90
2019-04-26T19:06:46.757Z,12.90
2019-04-26T19:09:18.485Z,12.80
2019-04-26T19:11:49.829Z,12.80
2019-04-26T19:14:25.135Z,12.70
2019-04-26T19:17:02.268Z,12.70
2019-04-26T19:19:34.330Z,12.60
2019-04-26T19:22:09.399Z,12.60
2019-04-26T19:24:39.139Z,12.50
2019-04-26T19:27:09.258Z,12.50
2019-04-26T19:29:43.607Z,12.50
2019-04-26T19:32:13.379Z,12.30
2019-04-26T19:34:42.966Z,12.30
2019-04-26T19:37:13.118Z,12.40
2019-04-26T19:39:46.861Z,12.40
2019-04-26T19:42:16.494Z,12.40
2019-04-26T19:44:50.904Z,12.30
2019-04-26T19:47:19.062Z,12.30
2019-04-26T19:49:54.083Z,12.30
2019-04-26T19:52:27.792Z,12.30
2019-04-26T19:55:02.064Z,12.20
2019-04-26T19:57:40.604Z,12.20
2019-04-26T20:00:11.490Z,12.10
2019-04-26T20:02:42.006Z,11.90
2019-04-26T20:05:12.054Z,11.80
2019-04-26T20:07:41.867Z,11.80
2019-04-26T20:10:12.884Z,11.70
2019-04-26T20:12:42.818Z,11.70
2019-04-26T20:15:25.198Z,11.70
2019-04-26T20:17:52.517Z,11.70
2019-04-26T20:20:23.910Z,11.70
2019-04-26T20:22:54.123Z,11.70
2019-04-26T20:25:26.433Z,11.70
2019-04-26T20:27:59.905Z,11.60
2019-04-26T20:30:28.962Z,11.50
2019-04-26T20:35:47.798Z,11.30
2019-04-26T20:38:19.830Z,11.30
2019-04-26T20:40:49.572Z,11.30
2019-04-26T20:43:24.447Z,11.20
2019-04-26T20:46:08.826Z,11.20
2019-04-26T20:48:25.686Z,11.10
2019-04-26T20:50:55.520Z,11.00
2019-04-26T20:53:26.215Z,11.10
2019-04-26T20:55:57.101Z,11.00
2019-04-26T20:58:26.759Z,11.00
2019-04-26T21:00:56.652Z,11.00
2019-04-26T21:03:27.929Z,10.90
2019-04-26T21:05:59.011Z,10.90
2019-04-26T21:08:29.703Z,10.90
2019-04-26T21:11:00.272Z,10.80
2019-04-26T21:13:32.363Z,10.80
2019-04-26T21:16:03.591Z,10.80
2019-04-26T21:18:39.863Z,10.80
2019-04-26T21:21:05.829Z,10.80
2019-04-26T21:23:39.872Z,11.00
2019-04-26T21:26:16.203Z,11.00
2019-04-26T21:29:03.612Z,11.10
2019-04-26T21:31:40.956Z,11.10
2019-04-26T21:34:12.573Z,11.20
2019-04-26T21:36:59.045Z,11.20
2019-04-26T21:39:33.865Z,11.30
2019-04-26T21:42:05.976Z,11.20
2019-04-26T21:44:35.657Z,11.10
2019-04-26T21:47:06.386Z,11.10
2019-04-26T21:49:38.088Z,11.10
2019-04-26T21:52:07.086Z,11.10
2019-04-26T21:54:36.646Z,11.10
2019-04-26T21:57:06.803Z,11.00
2019-04-26T21:59:40.994Z,11.10
2019-04-26T22:02:08.169Z,11.10
2019-04-26T22:04:37.875Z,11.20
2019-04-26T22:07:08.048Z,11.20
2019-04-26T22:09:39.444Z,11.20
2019-04-26T22:12:10.550Z,11.20
2019-04-26T22:14:43.384Z,11.10
2019-04-26T22:17:17.621Z,11.00
2019-04-26T22:19:54.535Z,10.90
2019-04-26T22:22:42.360Z,10.80
2019-04-26T22:25:13.650Z,10.70
2019-04-26T22:27:43.666Z,10.70
2019-04-26T22:30:15.191Z,10.60
2019-04-26T22:32:48.517Z,10.60
2019-04-26T22:35:20.122Z,10.50
2019-04-26T22:37:48.198Z,10.50
2019-04-26T22:40:19.857Z,10.50
2019-04-26T22:42:50.763Z,10.70
2019-04-26T22:45:30.842Z,10.80
2019-04-26T22:48:05.895Z,10.70
2019-04-26T22:50:35.604Z,10.60
2019-04-26T22:53:05.314Z,10.50
2019-04-26T22:55:35.502Z,10.30
2019-04-26T22:58:05.245Z,10.10
2019-04-26T23:00:36.558Z,10.00
2019-04-26T23:03:07.276Z,9.90
2019-04-26T23:05:39.166Z,9.90
2019-04-26T23:08:08.321Z,9.90
2019-04-26T23:10:42.920Z,9.80
2019-04-26T23:13:19.298Z,9.90
2019-04-26T23:15:50.410Z,9.90
2019-04-26T23:18:38.682Z,10.00
2019-04-26T23:21:15.033Z,10.10
2019-04-26T23:23:44.845Z,10.20
2019-04-26T23:26:14.556Z,10.10
2019-04-26T23:28:44.140Z,9.90
2019-04-26T23:31:13.903Z,9.70
2019-04-26T23:33:43.481Z,9.60
2019-04-26T23:36:13.628Z,9.70
2019-04-26T23:38:43.827Z,9.70
2019-04-26T23:41:14.161Z,9.70
2019-04-26T23:43:44.125Z,9.70
2019-04-26T23:46:14.686Z,9.70
2019-04-26T23:48:48.663Z,9.80
2019-04-26T23:51:15.595Z,9.80
2019-04-26T23:53:45.142Z,9.80
2019-04-26T23:56:21.762Z,9.80
2019-04-26T23:58:47.081Z,9.80
